sensor_id;sensor_type;location;lat;lon;timestamp;pressure;altitude;pressure_sealevel;temperature;humidity
72330;BME280;69154;52.076;5.110;2023-04-28T00:02:15;101479.10;;;3.56;28.75
72330;BME280;69154;52.076;5.110;2023-04-28T00:04:40;101476.85;;;4.21;27.73
72330;BME280;69154;52.076;5.110;2023-04-28T00:07:06;101467.74;;;4.13;27.99
72330;BME280;69154;52.076;5.110;2023-04-28T00:09:31;101455.85;;;3.91;28.84
72330;BME280;69154;52.076;5.110;2023-04-28T00:11:57;101448.26;;;5.00;27.15
72330;BME280;69154;52.076;5.110;2023-04-28T00:14:22;101442.18;;;3.65;28.45
72330;BME280;69154;52.076;5.110;2023-04-28T00:16:47;101442.33;;;3.60;27.89
72330;BME280;69154;52.076;5.110;2023-04-28T00:19:12;101439.98;;;4.62;27.68
72330;BME280;69154;52.076;5.110;2023-04-28T00:21:38;101434.24;;;3.48;27.60
72330;BME280;69154;52.076;5.110;2023-04-28T00:24:04;101428.31;;;2.96;29.13
72330;BME280;69154;52.076;5.110;2023-04-28T00:26:29;101425.03;;;3.98;28.78
72330;BME280;69154;52.076;5.110;2023-04-28T00:28:54;101418.90;;;3.28;29.14
72330;BME280;69154;52.076;5.110;2023-04-28T00:31:19;101417.14;;;4.63;28.16
72330;BME280;69154;52.076;5.110;2023-04-28T00:33:45;101415.76;;;2.12;30.03
72330;BME280;69154;52.076;5.110;2023-04-28T00:36:10;101418.35;;;2.26;30.68
72330;BME280;69154;52.076;5.110;2023-04-28T00:38:36;101413.22;;;3.12;29.35
72330;BME280;69154;52.076;5.110;2023-04-28T00:41:01;101416.22;;;3.70;29.74
72330;BME280;69154;52.076;5.110;2023-04-28T00:43:26;101410.43;;;3.73;29.52
72330;BME280;69154;52.076;5.110;2023-04-28T00:45:52;101411.75;;;4.04;28.38
72330;BME280;69154;52.076;5.110;2023-04-28T00:48:17;101409.97;;;3.60;29.46
72330;BME280;69154;52.076;5.110;2023-04-28T00:50:43;101397.76;;;2.78;29.94
72330;BME280;69154;52.076;5.110;2023-04-28T00:53:08;101390.45;;;2.22;30.70
72330;BME280;69154;52.076;5.110;2023-04-28T00:55:34;101384.89;;;1.92;30.96
72330;BME280;69154;52.076;5.110;2023-04-28T00:57:58;101381.39;;;2.92;30.54
72330;BME280;69154;52.076;5.110;2023-04-28T01:00:23;101380.03;;;4.57;28.28
72330;BME280;69154;52.076;5.110;2023-04-28T01:02:49;101374.33;;;3.35;28.60
72330;BME280;69154;52.076;5.110;2023-04-28T01:05:14;101376.55;;;3.63;29.72
72330;BME280;69154;52.076;5.110;2023-04-28T01:07:39;101381.46;;;4.00;28.96
72330;BME280;69154;52.076;5.110;2023-04-28T01:10:06;101380.83;;;3.75;29.29
72330;BME280;69154;52.076;5.110;2023-04-28T01:12:30;101380.46;;;3.78;29.10
72330;BME280;69154;52.076;5.110;2023-04-28T01:14:55;101378.50;;;2.59;30.21
72330;BME280;69154;52.076;5.110;2023-04-28T01:17:20;101376.00;;;4.14;29.30
72330;BME280;69154;52.076;5.110;2023-04-28T01:19:46;101377.93;;;3.05;29.66
72330;BME280;69154;52.076;5.110;2023-04-28T01:22:11;101369.28;;;3.64;30.24
72330;BME280;69154;52.076;5.110;2023-04-28T01:24:36;101372.82;;;4.15;28.76
72330;BME280;69154;52.076;5.110;2023-04-28T01:27:02;101366.42;;;4.81;26.85
72330;BME280;69154;52.076;5.110;2023-04-28T01:29:28;101362.94;;;4.32;28.83
72330;BME280;69154;52.076;5.110;2023-04-28T01:31:53;101354.69;;;3.69;28.39
72330;BME280;69154;52.076;5.110;2023-04-28T01:34:18;101347.49;;;4.14;28.76
72330;BME280;69154;52.076;5.110;2023-04-28T01:36:43;101338.95;;;2.38;30.02
72330;BME280;69154;52.076;5.110;2023-04-28T01:39:08;101333.80;;;3.30;30.33
72330;BME280;69154;52.076;5.110;2023-04-28T01:41:33;101333.96;;;3.12;29.80
72330;BME280;69154;52.076;5.110;2023-04-28T01:43:59;101337.50;;;3.82;29.21
72330;BME280;69154;52.076;5.110;2023-04-28T01:46:24;101335.07;;;3.67;28.84
72330;BME280;69154;52.076;5.110;2023-04-28T01:48:49;101328.33;;;2.17;30.72
72330;BME280;69154;52.076;5.110;2023-04-28T01:51:14;101328.13;;;3.14;30.75
72330;BME280;69154;52.076;5.110;2023-04-28T01:53:40;101328.97;;;4.40;28.48
72330;BME280;69154;52.076;5.110;2023-04-28T01:56:05;101326.35;;;4.76;28.46
72330;BME280;69154;52.076;5.110;2023-04-28T01:58:30;101324.43;;;4.40;29.13
72330;BME280;69154;52.076;5.110;2023-04-28T02:00:56;101320.57;;;2.19;31.03
72330;BME280;69154;52.076;5.110;2023-04-28T02:03:21;101322.08;;;3.94;29.79
72330;BME280;69154;52.076;5.110;2023-04-28T02:05:46;101317.98;;;3.35;29.18
72330;BME280;69154;52.076;5.110;2023-04-28T02:08:12;101311.00;;;3.13;30.36
72330;BME280;69154;52.076;5.110;2023-04-28T02:10:37;101314.16;;;2.72;30.28
72330;BME280;69154;52.076;5.110;2023-04-28T02:13:02;101310.41;;;3.69;29.45
72330;BME280;69154;52.076;5.110;2023-04-28T02:15:28;101309.11;;;3.69;30.38
72330;BME280;69154;52.076;5.110;2023-04-28T02:17:52;101303.95;;;2.69;30.75
72330;BME280;69154;52.076;5.110;2023-04-28T02:20:17;101307.02;;;4.69;29.27
72330;BME280;69154;52.076;5.110;2023-04-28T02:22:43;101301.52;;;1.62;30.63
72330;BME280;69154;52.076;5.110;2023-04-28T02:25:08;101299.75;;;3.98;29.13
72330;BME280;69154;52.076;5.110;2023-04-28T02:27:34;101291.23;;;3.15;29.92
72330;BME280;69154;52.076;5.110;2023-04-28T02:29:59;101287.79;;;3.95;29.70
72330;BME280;69154;52.076;5.110;2023-04-28T02:32:24;101284.86;;;3.60;30.03
72330;BME280;69154;52.076;5.110;2023-04-28T02:34:52;101283.80;;;2.77;30.33
72330;BME280;69154;52.076;5.110;2023-04-28T02:37:15;101280.85;;;2.67;30.92
72330;BME280;69154;52.076;5.110;2023-04-28T02:39:40;101282.33;;;3.77;29.67
72330;BME280;69154;52.076;5.110;2023-04-28T02:42:06;101275.41;;;4.18;28.96
72330;BME280;69154;52.076;5.110;2023-04-28T02:44:31;101264.10;;;4.47;28.43
72330;BME280;69154;52.076;5.110;2023-04-28T02:46:56;101254.92;;;4.35;29.11
72330;BME280;69154;52.076;5.110;2023-04-28T02:49:22;101250.07;;;3.81;29.45
72330;BME280;69154;52.076;5.110;2023-04-28T02:51:47;101248.17;;;2.76;29.55
72330;BME280;69154;52.076;5.110;2023-04-28T02:54:12;101243.64;;;5.13;28.25
72330;BME280;69154;52.076;5.110;2023-04-28T02:56:37;101238.23;;;4.07;28.29
72330;BME280;69154;52.076;5.110;2023-04-28T02:59:03;101241.32;;;5.73;27.11
72330;BME280;69154;52.076;5.110;2023-04-28T03:01:29;101237.09;;;5.15;27.19
72330;BME280;69154;52.076;5.110;2023-04-28T03:03:54;101232.64;;;5.26;26.90
72330;BME280;69154;52.076;5.110;2023-04-28T03:06:19;101228.17;;;3.59;29.41
72330;BME280;69154;52.076;5.110;2023-04-28T03:08:45;101223.97;;;4.24;28.88
72330;BME280;69154;52.076;5.110;2023-04-28T03:11:10;101226.95;;;4.25;29.35
72330;BME280;69154;52.076;5.110;2023-04-28T03:13:35;101234.35;;;4.59;28.03
72330;BME280;69154;52.076;5.110;2023-04-28T03:16:01;101233.13;;;4.65;27.71
72330;BME280;69154;52.076;5.110;2023-04-28T03:18:26;101233.98;;;4.19;28.08
72330;BME280;69154;52.076;5.110;2023-04-28T03:20:51;101229.13;;;4.65;28.20
72330;BME280;69154;52.076;5.110;2023-04-28T03:23:16;101222.84;;;4.16;28.27
72330;BME280;69154;52.076;5.110;2023-04-28T03:25:42;101221.68;;;3.75;28.59
72330;BME280;69154;52.076;5.110;2023-04-28T03:28:07;101218.09;;;4.48;29.05
72330;BME280;69154;52.076;5.110;2023-04-28T03:30:32;101219.75;;;3.38;29.87
72330;BME280;69154;52.076;5.110;2023-04-28T03:32:57;101214.36;;;3.81;29.31
72330;BME280;69154;52.076;5.110;2023-04-28T03:35:23;101215.46;;;3.52;30.32
72330;BME280;69154;52.076;5.110;2023-04-28T03:37:48;101217.92;;;1.84;30.80
72330;BME280;69154;52.076;5.110;2023-04-28T03:40:13;101210.07;;;4.23;29.92
72330;BME280;69154;52.076;5.110;2023-04-28T03:42:38;101206.49;;;3.96;29.45
72330;BME280;69154;52.076;5.110;2023-04-28T03:45:04;101206.51;;;4.89;28.15
72330;BME280;69154;52.076;5.110;2023-04-28T03:47:29;101201.09;;;5.26;28.55
72330;BME280;69154;52.076;5.110;2023-04-28T03:49:55;101196.04;;;2.69;30.74
72330;BME280;69154;52.076;5.110;2023-04-28T03:52:20;101190.28;;;3.64;30.79
72330;BME280;69154;52.076;5.110;2023-04-28T03:54:45;101189.46;;;2.83;31.08
72330;BME280;69154;52.076;5.110;2023-04-28T03:57:11;101189.13;;;2.94;30.92
72330;BME280;69154;52.076;5.110;2023-04-28T03:59:36;101184.90;;;3.21;29.89
72330;BME280;69154;52.076;5.110;2023-04-28T04:02:01;101184.19;;;3.61;30.51
72330;BME280;69154;52.076;5.110;2023-04-28T04:04:27;101183.99;;;6.83;27.18
72330;BME280;69154;52.076;5.110;2023-04-28T04:06:52;101183.49;;;6.94;25.94
72330;BME280;69154;52.076;5.110;2023-04-28T04:09:17;101173.67;;;6.76;26.32
72330;BME280;69154;52.076;5.110;2023-04-28T04:11:43;101163.94;;;5.05;26.73
72330;BME280;69154;52.076;5.110;2023-04-28T04:14:08;101166.98;;;6.61;26.15
72330;BME280;69154;52.076;5.110;2023-04-28T04:16:34;101164.90;;;4.10;28.68
72330;BME280;69154;52.076;5.110;2023-04-28T04:18:59;101171.64;;;7.69;25.77
72330;BME280;69154;52.076;5.110;2023-04-28T04:21:24;101161.73;;;6.71;25.91
72330;BME280;69154;52.076;5.110;2023-04-28T04:23:49;101157.69;;;6.54;26.01
72330;BME280;69154;52.076;5.110;2023-04-28T04:26:15;101160.06;;;6.72;26.37
72330;BME280;69154;52.076;5.110;2023-04-28T04:28:40;101154.76;;;5.28;27.08
72330;BME280;69154;52.076;5.110;2023-04-28T04:31:05;101154.63;;;6.61;27.54
72330;BME280;69154;52.076;5.110;2023-04-28T04:33:31;101143.89;;;4.45;29.17
72330;BME280;69154;52.076;5.110;2023-04-28T04:35:56;101139.59;;;4.38;29.43
72330;BME280;69154;52.076;5.110;2023-04-28T04:38:21;101140.80;;;6.81;27.75
72330;BME280;69154;52.076;5.110;2023-04-28T04:40:47;101142.04;;;6.60;26.89
72330;BME280;69154;52.076;5.110;2023-04-28T04:43:12;101138.09;;;6.55;26.93
72330;BME280;69154;52.076;5.110;2023-04-28T04:45:37;101130.12;;;6.36;27.19
72330;BME280;69154;52.076;5.110;2023-04-28T04:48:03;101129.19;;;6.77;26.92
72330;BME280;69154;52.076;5.110;2023-04-28T04:50:28;101124.88;;;6.60;28.02
72330;BME280;69154;52.076;5.110;2023-04-28T04:52:53;101124.01;;;7.19;26.48
72330;BME280;69154;52.076;5.110;2023-04-28T04:55:18;101123.23;;;7.96;26.09
72330;BME280;69154;52.076;5.110;2023-04-28T04:57:44;101120.79;;;6.87;26.54
72330;BME280;69154;52.076;5.110;2023-04-28T05:00:10;101112.35;;;6.77;27.25
72330;BME280;69154;52.076;5.110;2023-04-28T05:02:34;101102.99;;;4.98;29.39
72330;BME280;69154;52.076;5.110;2023-04-28T05:05:00;101114.64;;;6.70;27.80
72330;BME280;69154;52.076;5.110;2023-04-28T05:07:25;101118.47;;;7.84;26.94
72330;BME280;69154;52.076;5.110;2023-04-28T05:09:50;101129.04;;;6.72;27.44
72330;BME280;69154;52.076;5.110;2023-04-28T05:12:16;101140.80;;;7.53;27.38
72330;BME280;69154;52.076;5.110;2023-04-28T05:14:41;101146.65;;;7.36;26.58
72330;BME280;69154;52.076;5.110;2023-04-28T05:17:06;101143.67;;;7.96;26.37
72330;BME280;69154;52.076;5.110;2023-04-28T05:19:32;101143.14;;;10.20;24.85
72330;BME280;69154;52.076;5.110;2023-04-28T05:21:57;101136.03;;;9.40;24.66
72330;BME280;69154;52.076;5.110;2023-04-28T05:24:23;101129.09;;;7.94;26.30
72330;BME280;69154;52.076;5.110;2023-04-28T05:26:48;101133.03;;;6.57;27.71
72330;BME280;69154;52.076;5.110;2023-04-28T05:29:13;101142.81;;;5.99;29.20
72330;BME280;69154;52.076;5.110;2023-04-28T05:31:38;101140.40;;;5.86;30.47
72330;BME280;69154;52.076;5.110;2023-04-28T05:34:04;101133.40;;;4.88;31.14
72330;BME280;69154;52.076;5.110;2023-04-28T05:36:29;101134.73;;;5.15;32.31
72330;BME280;69154;52.076;5.110;2023-04-28T05:38:54;101137.31;;;5.82;32.02
72330;BME280;69154;52.076;5.110;2023-04-28T05:41:20;101138.49;;;7.23;30.55
72330;BME280;69154;52.076;5.110;2023-04-28T05:43:45;101138.57;;;6.89;30.77
72330;BME280;69154;52.076;5.110;2023-04-28T05:46:10;101131.25;;;5.10;33.56
72330;BME280;69154;52.076;5.110;2023-04-28T05:48:36;101136.70;;;6.98;31.72
72330;BME280;69154;52.076;5.110;2023-04-28T05:51:02;101140.12;;;7.92;30.44
72330;BME280;69154;52.076;5.110;2023-04-28T05:53:28;101140.08;;;8.69;29.33
72330;BME280;69154;52.076;5.110;2023-04-28T05:55:53;101135.18;;;7.57;29.50
72330;BME280;69154;52.076;5.110;2023-04-28T05:58:18;101130.80;;;8.37;29.56
72330;BME280;69154;52.076;5.110;2023-04-28T06:00:43;101121.45;;;6.93;30.40
72330;BME280;69154;52.076;5.110;2023-04-28T06:03:08;101110.14;;;7.71;30.52
72330;BME280;69154;52.076;5.110;2023-04-28T06:05:33;101106.96;;;7.31;32.09
72330;BME280;69154;52.076;5.110;2023-04-28T06:07:59;101107.85;;;7.55;31.02
72330;BME280;69154;52.076;5.110;2023-04-28T06:10:25;101116.79;;;7.95;30.98
72330;BME280;69154;52.076;5.110;2023-04-28T06:12:49;101116.70;;;6.67;31.69
72330;BME280;69154;52.076;5.110;2023-04-28T06:15:15;101108.36;;;7.51;31.99
72330;BME280;69154;52.076;5.110;2023-04-28T06:17:40;101104.77;;;5.43;34.39
72330;BME280;69154;52.076;5.110;2023-04-28T06:20:07;101092.52;;;5.53;35.82
72330;BME280;69154;52.076;5.110;2023-04-28T06:22:31;101084.12;;;5.33;37.00
72330;BME280;69154;52.076;5.110;2023-04-28T06:24:56;101079.80;;;5.64;36.49
72330;BME280;69154;52.076;5.110;2023-04-28T06:27:22;101091.31;;;6.96;34.55
72330;BME280;69154;52.076;5.110;2023-04-28T06:29:47;101091.07;;;7.40;33.64
72330;BME280;69154;52.076;5.110;2023-04-28T06:32:12;101097.45;;;7.62;33.85
72330;BME280;69154;52.076;5.110;2023-04-28T06:34:38;101096.52;;;7.09;33.71
72330;BME280;69154;52.076;5.110;2023-04-28T06:37:03;101102.50;;;7.39;34.35
72330;BME280;69154;52.076;5.110;2023-04-28T06:39:29;101099.76;;;7.29;34.84
72330;BME280;69154;52.076;5.110;2023-04-28T06:41:53;101098.05;;;7.17;33.91
72330;BME280;69154;52.076;5.110;2023-04-28T06:44:19;101091.90;;;5.02;36.94
72330;BME280;69154;52.076;5.110;2023-04-28T06:46:44;101083.22;;;5.07;37.64
72330;BME280;69154;52.076;5.110;2023-04-28T06:49:09;101084.28;;;5.64;37.92
72330;BME280;69154;52.076;5.110;2023-04-28T06:51:35;101083.87;;;4.90;38.77
72330;BME280;69154;52.076;5.110;2023-04-28T06:54:01;101085.50;;;5.73;37.49
72330;BME280;69154;52.076;5.110;2023-04-28T06:56:26;101083.36;;;6.86;36.68
72330;BME280;69154;52.076;5.110;2023-04-28T06:58:53;101086.38;;;7.92;35.18
72330;BME280;69154;52.076;5.110;2023-04-28T07:01:17;101079.64;;;8.49;34.55
72330;BME280;69154;52.076;5.110;2023-04-28T07:03:42;101077.85;;;7.30;34.74
72330;BME280;69154;52.076;5.110;2023-04-28T07:06:07;101083.69;;;8.54;34.16
72330;BME280;69154;52.076;5.110;2023-04-28T07:08:33;101086.08;;;7.96;34.68
72330;BME280;69154;52.076;5.110;2023-04-28T07:10:58;101086.10;;;8.66;34.13
72330;BME280;69154;52.076;5.110;2023-04-28T07:13:24;101083.85;;;10.22;32.54
72330;BME280;69154;52.076;5.110;2023-04-28T07:15:49;101079.24;;;9.21;31.79
72330;BME280;69154;52.076;5.110;2023-04-28T07:18:15;101079.84;;;9.64;32.64
72330;BME280;69154;52.076;5.110;2023-04-28T07:20:40;101076.89;;;9.40;32.57
72330;BME280;69154;52.076;5.110;2023-04-28T07:23:06;101079.85;;;10.37;33.09
72330;BME280;69154;52.076;5.110;2023-04-28T07:25:31;101080.68;;;8.64;34.33
72330;BME280;69154;52.076;5.110;2023-04-28T07:27:56;101080.90;;;10.27;32.39
72330;BME280;69154;52.076;5.110;2023-04-28T07:30:21;101082.20;;;11.95;30.47
72330;BME280;69154;52.076;5.110;2023-04-28T07:32:47;101083.92;;;10.67;30.98
72330;BME280;69154;52.076;5.110;2023-04-28T07:35:12;101079.77;;;9.81;32.54
72330;BME280;69154;52.076;5.110;2023-04-28T07:37:42;101082.57;;;9.17;33.56
72330;BME280;69154;52.076;5.110;2023-04-28T07:40:04;101084.77;;;9.16;34.00
72330;BME280;69154;52.076;5.110;2023-04-28T07:42:29;101086.21;;;9.91;33.72
72330;BME280;69154;52.076;5.110;2023-04-28T07:44:54;101089.80;;;8.80;34.07
72330;BME280;69154;52.076;5.110;2023-04-28T07:47:19;101086.01;;;10.21;33.63
72330;BME280;69154;52.076;5.110;2023-04-28T07:49:44;101083.76;;;10.28;32.24
72330;BME280;69154;52.076;5.110;2023-04-28T07:52:10;101085.39;;;11.12;31.62
72330;BME280;69154;52.076;5.110;2023-04-28T07:54:35;101089.37;;;11.55;31.19
72330;BME280;69154;52.076;5.110;2023-04-28T07:57:01;101093.14;;;10.86;31.63
72330;BME280;69154;52.076;5.110;2023-04-28T07:59:26;101090.15;;;12.22;30.88
72330;BME280;69154;52.076;5.110;2023-04-28T08:01:51;101081.22;;;12.36;30.16
72330;BME280;69154;52.076;5.110;2023-04-28T08:04:17;101084.97;;;11.71;31.34
72330;BME280;69154;52.076;5.110;2023-04-28T08:06:42;101081.49;;;10.86;31.28
72330;BME280;69154;52.076;5.110;2023-04-28T08:09:08;101076.36;;;12.94;30.32
72330;BME280;69154;52.076;5.110;2023-04-28T08:11:33;101077.94;;;13.50;30.48
72330;BME280;69154;52.076;5.110;2023-04-28T08:13:59;101076.31;;;13.40;30.72
72330;BME280;69154;52.076;5.110;2023-04-28T08:16:24;101077.43;;;13.06;31.44
72330;BME280;69154;52.076;5.110;2023-04-28T08:18:49;101074.01;;;12.51;31.01
72330;BME280;69154;52.076;5.110;2023-04-28T08:21:15;101067.33;;;13.66;31.49
72330;BME280;69154;52.076;5.110;2023-04-28T08:23:40;101065.66;;;13.32;30.62
72330;BME280;69154;52.076;5.110;2023-04-28T08:26:06;101064.63;;;13.03;31.25
72330;BME280;69154;52.076;5.110;2023-04-28T08:28:31;101062.91;;;12.79;31.67
72330;BME280;69154;52.076;5.110;2023-04-28T08:30:57;101064.32;;;12.99;31.88
72330;BME280;69154;52.076;5.110;2023-04-28T08:33:22;101065.76;;;13.45;31.80
72330;BME280;69154;52.076;5.110;2023-04-28T08:35:48;101070.20;;;12.10;32.36
72330;BME280;69154;52.076;5.110;2023-04-28T08:38:14;101069.62;;;12.68;32.04
72330;BME280;69154;52.076;5.110;2023-04-28T08:40:40;101069.96;;;12.89;31.99
72330;BME280;69154;52.076;5.110;2023-04-28T08:43:05;101075.25;;;14.00;31.10
72330;BME280;69154;52.076;5.110;2023-04-28T08:45:38;101074.91;;;12.88;31.98
72330;BME280;69154;52.076;5.110;2023-04-28T08:47:57;101072.50;;;13.11;32.00
72330;BME280;69154;52.076;5.110;2023-04-28T08:50:21;101074.81;;;14.40;31.06
72330;BME280;69154;52.076;5.110;2023-04-28T08:52:47;101073.03;;;14.47;30.54
72330;BME280;69154;52.076;5.110;2023-04-28T08:55:12;101072.01;;;15.38;30.18
72330;BME280;69154;52.076;5.110;2023-04-28T08:57:38;101074.86;;;13.10;31.89
72330;BME280;69154;52.076;5.110;2023-04-28T09:00:04;101069.59;;;12.97;32.87
72330;BME280;69154;52.076;5.110;2023-04-28T09:02:29;101063.75;;;13.16;32.72
72330;BME280;69154;52.076;5.110;2023-04-28T09:04:54;101063.73;;;13.51;32.09
72330;BME280;69154;52.076;5.110;2023-04-28T09:07:19;101061.70;;;13.60;32.71
72330;BME280;69154;52.076;5.110;2023-04-28T09:09:44;101062.57;;;13.67;32.05
72330;BME280;69154;52.076;5.110;2023-04-28T09:12:10;101062.96;;;14.24;32.27
72330;BME280;69154;52.076;5.110;2023-04-28T09:14:37;101064.84;;;13.69;32.69
72330;BME280;69154;52.076;5.110;2023-04-28T09:17:01;101064.86;;;14.27;32.67
72330;BME280;69154;52.076;5.110;2023-04-28T09:19:32;101061.14;;;13.78;33.74
72330;BME280;69154;52.076;5.110;2023-04-28T09:21:53;101061.62;;;13.15;33.58
72330;BME280;69154;52.076;5.110;2023-04-28T09:24:25;101061.36;;;12.96;35.08
72330;BME280;69154;52.076;5.110;2023-04-28T09:26:47;101057.50;;;12.64;35.23
72330;BME280;69154;52.076;5.110;2023-04-28T09:29:11;101058.81;;;13.17;34.98
72330;BME280;69154;52.076;5.110;2023-04-28T09:31:33;101057.40;;;13.76;34.44
72330;BME280;69154;52.076;5.110;2023-04-28T09:33:59;101056.04;;;14.02;34.21
72330;BME280;69154;52.076;5.110;2023-04-28T09:36:25;101054.62;;;14.54;33.33
72330;BME280;69154;52.076;5.110;2023-04-28T09:38:49;101053.37;;;14.17;33.27
72330;BME280;69154;52.076;5.110;2023-04-28T09:41:15;101054.56;;;14.93;32.65
72330;BME280;69154;52.076;5.110;2023-04-28T09:43:40;101055.60;;;14.38;32.30
72330;BME280;69154;52.076;5.110;2023-04-28T09:46:05;101053.89;;;13.90;33.87
72330;BME280;69154;52.076;5.110;2023-04-28T09:48:31;101050.26;;;13.68;34.23
72330;BME280;69154;52.076;5.110;2023-04-28T09:50:56;101048.08;;;13.42;34.22
72330;BME280;69154;52.076;5.110;2023-04-28T09:53:22;101052.29;;;14.54;33.20
72330;BME280;69154;52.076;5.110;2023-04-28T09:55:47;101048.30;;;14.59;32.43
72330;BME280;69154;52.076;5.110;2023-04-28T09:58:13;101051.63;;;15.78;31.86
72330;BME280;69154;52.076;5.110;2023-04-28T10:00:39;101048.32;;;14.72;31.82
72330;BME280;69154;52.076;5.110;2023-04-28T10:03:04;101044.88;;;14.45;32.94
72330;BME280;69154;52.076;5.110;2023-04-28T10:05:30;101043.99;;;14.89;32.83
72330;BME280;69154;52.076;5.110;2023-04-28T10:07:54;101043.38;;;13.95;33.79
72330;BME280;69154;52.076;5.110;2023-04-28T10:10:20;101046.62;;;14.00;34.09
72330;BME280;69154;52.076;5.110;2023-04-28T10:12:45;101052.05;;;14.58;32.48
72330;BME280;69154;52.076;5.110;2023-04-28T10:15:11;101048.18;;;14.65;32.53
72330;BME280;69154;52.076;5.110;2023-04-28T10:17:36;101048.40;;;13.76;33.86
72330;BME280;69154;52.076;5.110;2023-04-28T10:20:01;101051.89;;;14.52;33.92
72330;BME280;69154;52.076;5.110;2023-04-28T10:22:39;101047.38;;;16.05;32.08
72330;BME280;69154;52.076;5.110;2023-04-28T10:25:06;101049.07;;;14.28;32.87
72330;BME280;69154;52.076;5.110;2023-04-28T10:27:17;101047.12;;;14.98;32.85
72330;BME280;69154;52.076;5.110;2023-04-28T10:29:42;101048.15;;;15.33;32.09
72330;BME280;69154;52.076;5.110;2023-04-28T10:32:23;101048.81;;;15.60;32.08
72330;BME280;69154;52.076;5.110;2023-04-28T10:34:33;101048.51;;;16.02;31.73
72330;BME280;69154;52.076;5.110;2023-04-28T10:36:58;101044.34;;;13.99;33.38
72330;BME280;69154;52.076;5.110;2023-04-28T10:39:23;101049.26;;;14.58;33.76
72330;BME280;69154;52.076;5.110;2023-04-28T10:41:49;101046.94;;;13.48;34.66
72330;BME280;69154;52.076;5.110;2023-04-28T10:44:47;101051.21;;;15.03;33.61
72330;BME280;69154;52.076;5.110;2023-04-28T10:46:59;101049.11;;;14.03;34.33
72330;BME280;69154;52.076;5.110;2023-04-28T10:49:06;101046.45;;;13.50;36.08
72330;BME280;69154;52.076;5.110;2023-04-28T10:51:32;101052.25;;;13.77;36.08
72330;BME280;69154;52.076;5.110;2023-04-28T10:54:15;101051.29;;;15.18;34.49
72330;BME280;69154;52.076;5.110;2023-04-28T10:56:23;101050.57;;;16.07;33.80
72330;BME280;69154;52.076;5.110;2023-04-28T10:58:48;101049.88;;;14.66;34.76
72330;BME280;69154;52.076;5.110;2023-04-28T11:01:30;101045.12;;;15.49;34.97
72330;BME280;69154;52.076;5.110;2023-04-28T11:03:47;101050.56;;;15.97;33.49
72330;BME280;69154;52.076;5.110;2023-04-28T11:06:19;101042.31;;;14.58;34.73
72330;BME280;69154;52.076;5.110;2023-04-28T11:08:34;101042.21;;;15.41;33.53
72330;BME280;69154;52.076;5.110;2023-04-28T11:11:26;101042.09;;;15.97;33.30
72330;BME280;69154;52.076;5.110;2023-04-28T11:13:27;101039.04;;;15.84;33.39
72330;BME280;69154;52.076;5.110;2023-04-28T11:16:01;101036.48;;;16.24;32.24
72330;BME280;69154;52.076;5.110;2023-04-28T11:18:15;101035.18;;;16.11;33.14
72330;BME280;69154;52.076;5.110;2023-04-28T11:20:36;101035.02;;;16.43;32.54
72330;BME280;69154;52.076;5.110;2023-04-28T11:23:02;101026.45;;;17.03;31.63
72330;BME280;69154;52.076;5.110;2023-04-28T11:25:25;101033.33;;;15.65;32.72
72330;BME280;69154;52.076;5.110;2023-04-28T11:27:50;101034.41;;;15.48;32.95
72330;BME280;69154;52.076;5.110;2023-04-28T11:30:19;101036.40;;;15.51;33.12
72330;BME280;69154;52.076;5.110;2023-04-28T11:32:41;101039.84;;;15.52;32.78
72330;BME280;69154;52.076;5.110;2023-04-28T11:35:06;101046.25;;;15.98;32.27
72330;BME280;69154;52.076;5.110;2023-04-28T11:37:31;101039.28;;;14.45;33.93
72330;BME280;69154;52.076;5.110;2023-04-28T11:39:56;101043.31;;;15.10;33.64
72330;BME280;69154;52.076;5.110;2023-04-28T11:42:21;101033.02;;;15.12;34.03
72330;BME280;69154;52.076;5.110;2023-04-28T11:44:50;101039.39;;;13.50;35.59
72330;BME280;69154;52.076;5.110;2023-04-28T11:47:11;101038.59;;;15.35;34.30
72330;BME280;69154;52.076;5.110;2023-04-28T11:49:44;101038.62;;;13.77;35.16
72330;BME280;69154;52.076;5.110;2023-04-28T11:52:04;101045.29;;;14.31;35.37
72330;BME280;69154;52.076;5.110;2023-04-28T11:54:27;101047.33;;;15.50;33.43
72330;BME280;69154;52.076;5.110;2023-04-28T11:56:52;101053.88;;;16.04;31.94
72330;BME280;69154;52.076;5.110;2023-04-28T11:59:16;101050.19;;;16.18;32.17
72330;BME280;69154;52.076;5.110;2023-04-28T12:01:46;101048.61;;;14.26;33.59
72330;BME280;69154;52.076;5.110;2023-04-28T12:04:06;101048.87;;;14.73;33.54
72330;BME280;69154;52.076;5.110;2023-04-28T12:06:31;101052.80;;;15.04;34.42
72330;BME280;69154;52.076;5.110;2023-04-28T12:08:57;101054.35;;;15.84;33.33
72330;BME280;69154;52.076;5.110;2023-04-28T12:11:22;101055.78;;;16.15;32.82
72330;BME280;69154;52.076;5.110;2023-04-28T12:14:19;101058.85;;;14.60;33.72
72330;BME280;69154;52.076;5.110;2023-04-28T12:16:12;101058.53;;;14.28;34.93
72330;BME280;69154;52.076;5.110;2023-04-28T12:18:37;101059.33;;;14.60;34.02
72330;BME280;69154;52.076;5.110;2023-04-28T12:21:03;101060.11;;;13.68;35.05
72330;BME280;69154;52.076;5.110;2023-04-28T12:23:29;101065.55;;;13.84;35.74
72330;BME280;69154;52.076;5.110;2023-04-28T12:25:52;101069.13;;;13.34;36.08
72330;BME280;69154;52.076;5.110;2023-04-28T12:28:18;101067.00;;;14.80;34.84
72330;BME280;69154;52.076;5.110;2023-04-28T12:30:43;101064.89;;;14.97;34.09
72330;BME280;69154;52.076;5.110;2023-04-28T12:33:21;101067.68;;;15.20;33.86
72330;BME280;69154;52.076;5.110;2023-04-28T12:35:33;101072.46;;;14.45;34.80
72330;BME280;69154;52.076;5.110;2023-04-28T12:37:58;101068.04;;;13.50;36.99
72330;BME280;69154;52.076;5.110;2023-04-28T12:40:24;101070.90;;;15.40;34.69
72330;BME280;69154;52.076;5.110;2023-04-28T12:42:49;101073.73;;;14.34;34.88
72330;BME280;69154;52.076;5.110;2023-04-28T12:45:14;101070.12;;;14.17;36.37